North Las Vegas, Nevada
Current Conditions -  °F | °C
As of 1:58 AM on Wednesday 26 Nov 2014 (Local Time) from KLSV Reporting Station
Clear Clear  
Wind Chill: 38°   Ceiling: Unl
Heat Index: 41°   Visibility: 10mi
Dew Point: 10°   Wind: 5mph
Humidity: 28%   Direction: 70°ENE
Pressure: 30.37"   Gusts: NA
Location:  36.2°N, 115.11°W
Report Text: KLSV 260958Z AUTO 07004KT 10SM CLR 05/M12 A3037 RMK AO2 SLP283 T00481123
Loading
Personal Weather Stations






























Interactive Weather Map New forecast layout! Learn more

10-Day Weather Forecast

Advertisements
Track Severe Weather on mobile